sensor_id;sensor_type;location;lat;lon;timestamp;P1;durP1;ratioP1;P2;durP2;ratioP2
34278;SDS011;20538;51.528;9.942;2023-04-25T00:02:05;13.32;;;4.55;;
34278;SDS011;20538;51.528;9.942;2023-04-25T00:04:31;13.90;;;4.90;;
34278;SDS011;20538;51.528;9.942;2023-04-25T00:06:59;11.02;;;4.43;;
34278;SDS011;20538;51.528;9.942;2023-04-25T00:09:26;9.90;;;4.38;;
34278;SDS011;20538;51.528;9.942;2023-04-25T00:11:52;11.20;;;4.60;;
34278;SDS011;20538;51.528;9.942;2023-04-25T00:14:18;13.20;;;4.78;;
34278;SDS011;20538;51.528;9.942;2023-04-25T00:16:44;15.50;;;5.05;;
34278;SDS011;20538;51.528;9.942;2023-04-25T00:19:09;14.85;;;5.78;;
34278;SDS011;20538;51.528;9.942;2023-04-25T00:21:36;12.48;;;4.63;;
34278;SDS011;20538;51.528;9.942;2023-04-25T00:24:05;12.75;;;5.53;;
34278;SDS011;20538;51.528;9.942;2023-04-25T00:26:31;14.88;;;5.15;;
34278;SDS011;20538;51.528;9.942;2023-04-25T00:28:58;13.63;;;5.03;;
34278;SDS011;20538;51.528;9.942;2023-04-25T00:31:23;12.77;;;6.15;;
34278;SDS011;20538;51.528;9.942;2023-04-25T00:33:49;15.75;;;5.35;;
34278;SDS011;20538;51.528;9.942;2023-04-25T00:36:15;13.07;;;5.15;;
34278;SDS011;20538;51.528;9.942;2023-04-25T00:38:42;10.18;;;5.40;;
34278;SDS011;20538;51.528;9.942;2023-04-25T00:41:07;19.55;;;6.13;;
34278;SDS011;20538;51.528;9.942;2023-04-25T00:43:33;10.68;;;5.47;;
34278;SDS011;20538;51.528;9.942;2023-04-25T00:46:01;19.90;;;5.63;;
34278;SDS011;20538;51.528;9.942;2023-04-25T00:48:26;19.40;;;6.13;;
34278;SDS011;20538;51.528;9.942;2023-04-25T00:50:53;15.10;;;5.97;;
34278;SDS011;20538;51.528;9.942;2023-04-25T00:53:22;17.08;;;6.45;;
34278;SDS011;20538;51.528;9.942;2023-04-25T00:55:48;14.07;;;5.97;;
34278;SDS011;20538;51.528;9.942;2023-04-25T00:58:18;15.32;;;6.95;;
34278;SDS011;20538;51.528;9.942;2023-04-25T01:00:45;14.50;;;6.95;;
34278;SDS011;20538;51.528;9.942;2023-04-25T01:03:15;22.95;;;7.55;;
34278;SDS011;20538;51.528;9.942;2023-04-25T01:05:42;25.48;;;8.27;;
34278;SDS011;20538;51.528;9.942;2023-04-25T01:08:08;18.02;;;8.38;;
34278;SDS011;20538;51.528;9.942;2023-04-25T01:10:35;25.35;;;8.45;;
34278;SDS011;20538;51.528;9.942;2023-04-25T01:13:01;28.17;;;8.85;;
34278;SDS011;20538;51.528;9.942;2023-04-25T01:15:27;23.15;;;8.50;;
34278;SDS011;20538;51.528;9.942;2023-04-25T01:17:52;20.52;;;9.00;;
34278;SDS011;20538;51.528;9.942;2023-04-25T01:20:20;20.20;;;8.57;;
34278;SDS011;20538;51.528;9.942;2023-04-25T01:22:47;25.08;;;9.38;;
34278;SDS011;20538;51.528;9.942;2023-04-25T01:25:14;25.83;;;9.45;;
34278;SDS011;20538;51.528;9.942;2023-04-25T01:27:40;25.42;;;9.50;;
34278;SDS011;20538;51.528;9.942;2023-04-25T01:30:06;18.92;;;9.50;;
34278;SDS011;20538;51.528;9.942;2023-04-25T01:32:32;22.88;;;9.82;;
34278;SDS011;20538;51.528;9.942;2023-04-25T01:35:03;26.98;;;9.93;;
34278;SDS011;20538;51.528;9.942;2023-04-25T01:37:34;26.10;;;10.18;;
34278;SDS011;20538;51.528;9.942;2023-04-25T01:40:01;19.10;;;9.45;;
34278;SDS011;20538;51.528;9.942;2023-04-25T01:42:27;18.60;;;9.25;;
34278;SDS011;20538;51.528;9.942;2023-04-25T01:44:53;24.73;;;10.40;;
34278;SDS011;20538;51.528;9.942;2023-04-25T01:47:19;26.08;;;10.75;;
34278;SDS011;20538;51.528;9.942;2023-04-25T01:49:44;21.38;;;9.98;;
34278;SDS011;20538;51.528;9.942;2023-04-25T01:52:10;20.73;;;9.13;;
34278;SDS011;20538;51.528;9.942;2023-04-25T01:54:35;24.25;;;9.63;;
34278;SDS011;20538;51.528;9.942;2023-04-25T01:57:01;23.27;;;10.23;;
34278;SDS011;20538;51.528;9.942;2023-04-25T01:59:27;25.08;;;9.63;;
34278;SDS011;20538;51.528;9.942;2023-04-25T02:01:52;19.08;;;8.95;;
34278;SDS011;20538;51.528;9.942;2023-04-25T02:04:18;22.35;;;9.30;;
34278;SDS011;20538;51.528;9.942;2023-04-25T02:06:43;26.17;;;9.40;;
34278;SDS011;20538;51.528;9.942;2023-04-25T02:09:09;18.80;;;8.68;;
34278;SDS011;20538;51.528;9.942;2023-04-25T02:11:35;22.92;;;8.93;;
34278;SDS011;20538;51.528;9.942;2023-04-25T02:14:00;29.33;;;8.98;;
34278;SDS011;20538;51.528;9.942;2023-04-25T02:16:26;19.00;;;8.57;;
34278;SDS011;20538;51.528;9.942;2023-04-25T02:18:51;15.75;;;8.13;;
34278;SDS011;20538;51.528;9.942;2023-04-25T02:21:17;18.40;;;8.85;;
34278;SDS011;20538;51.528;9.942;2023-04-25T02:23:43;20.52;;;9.27;;
34278;SDS011;20538;51.528;9.942;2023-04-25T02:26:12;21.20;;;8.98;;
34278;SDS011;20538;51.528;9.942;2023-04-25T02:28:38;30.40;;;9.50;;
34278;SDS011;20538;51.528;9.942;2023-04-25T02:31:03;25.90;;;9.65;;
34278;SDS011;20538;51.528;9.942;2023-04-25T02:33:29;21.08;;;10.38;;
34278;SDS011;20538;51.528;9.942;2023-04-25T02:35:55;23.77;;;9.63;;
34278;SDS011;20538;51.528;9.942;2023-04-25T02:38:20;27.55;;;9.82;;
34278;SDS011;20538;51.528;9.942;2023-04-25T02:40:46;24.45;;;9.60;;
34278;SDS011;20538;51.528;9.942;2023-04-25T02:43:12;20.98;;;9.65;;
34278;SDS011;20538;51.528;9.942;2023-04-25T02:45:37;23.23;;;9.60;;
34278;SDS011;20538;51.528;9.942;2023-04-25T02:48:03;29.50;;;10.88;;
34278;SDS011;20538;51.528;9.942;2023-04-25T02:50:29;31.38;;;10.20;;
34278;SDS011;20538;51.528;9.942;2023-04-25T02:52:54;27.25;;;10.07;;
34278;SDS011;20538;51.528;9.942;2023-04-25T02:55:20;31.10;;;10.52;;
34278;SDS011;20538;51.528;9.942;2023-04-25T02:57:47;21.90;;;10.60;;
34278;SDS011;20538;51.528;9.942;2023-04-25T03:00:13;24.75;;;9.25;;
34278;SDS011;20538;51.528;9.942;2023-04-25T03:02:39;21.73;;;8.73;;
34278;SDS011;20538;51.528;9.942;2023-04-25T03:05:05;28.63;;;8.82;;
34278;SDS011;20538;51.528;9.942;2023-04-25T03:07:31;19.63;;;9.13;;
34278;SDS011;20538;51.528;9.942;2023-04-25T03:09:56;22.88;;;8.50;;
34278;SDS011;20538;51.528;9.942;2023-04-25T03:12:22;15.93;;;8.00;;
34278;SDS011;20538;51.528;9.942;2023-04-25T03:14:47;19.42;;;8.98;;
34278;SDS011;20538;51.528;9.942;2023-04-25T03:17:13;23.52;;;8.40;;
34278;SDS011;20538;51.528;9.942;2023-04-25T03:19:39;20.85;;;8.38;;
34278;SDS011;20538;51.528;9.942;2023-04-25T03:22:04;21.02;;;8.85;;
34278;SDS011;20538;51.528;9.942;2023-04-25T03:24:30;20.25;;;7.95;;
34278;SDS011;20538;51.528;9.942;2023-04-25T03:26:55;28.45;;;8.45;;
34278;SDS011;20538;51.528;9.942;2023-04-25T03:29:21;28.05;;;8.50;;
34278;SDS011;20538;51.528;9.942;2023-04-25T03:31:49;19.20;;;8.20;;
34278;SDS011;20538;51.528;9.942;2023-04-25T03:34:15;19.65;;;8.38;;
34278;SDS011;20538;51.528;9.942;2023-04-25T03:36:40;19.13;;;8.65;;
34278;SDS011;20538;51.528;9.942;2023-04-25T03:39:06;20.10;;;9.40;;
34278;SDS011;20538;51.528;9.942;2023-04-25T03:41:32;20.02;;;8.20;;
34278;SDS011;20538;51.528;9.942;2023-04-25T03:43:57;17.38;;;8.73;;
34278;SDS011;20538;51.528;9.942;2023-04-25T03:46:23;24.88;;;8.55;;
34278;SDS011;20538;51.528;9.942;2023-04-25T03:48:48;22.40;;;8.48;;
34278;SDS011;20538;51.528;9.942;2023-04-25T03:51:14;27.63;;;8.90;;
34278;SDS011;20538;51.528;9.942;2023-04-25T03:53:40;25.92;;;10.00;;
34278;SDS011;20538;51.528;9.942;2023-04-25T03:56:06;20.63;;;8.40;;
34278;SDS011;20538;51.528;9.942;2023-04-25T03:58:32;22.00;;;8.10;;
34278;SDS011;20538;51.528;9.942;2023-04-25T04:00:57;20.33;;;8.43;;
34278;SDS011;20538;51.528;9.942;2023-04-25T04:03:23;19.88;;;9.10;;
34278;SDS011;20538;51.528;9.942;2023-04-25T04:05:48;23.23;;;8.23;;
34278;SDS011;20538;51.528;9.942;2023-04-25T04:08:14;17.83;;;8.07;;
34278;SDS011;20538;51.528;9.942;2023-04-25T04:10:40;24.70;;;8.32;;
34278;SDS011;20538;51.528;9.942;2023-04-25T04:13:06;21.27;;;8.68;;
34278;SDS011;20538;51.528;9.942;2023-04-25T04:15:31;25.23;;;9.35;;
34278;SDS011;20538;51.528;9.942;2023-04-25T04:17:58;20.88;;;7.38;;
34278;SDS011;20538;51.528;9.942;2023-04-25T04:20:27;25.02;;;8.90;;
34278;SDS011;20538;51.528;9.942;2023-04-25T04:22:54;22.55;;;8.80;;
34278;SDS011;20538;51.528;9.942;2023-04-25T04:25:19;19.73;;;8.57;;
34278;SDS011;20538;51.528;9.942;2023-04-25T04:27:45;22.15;;;9.07;;
34278;SDS011;20538;51.528;9.942;2023-04-25T04:30:11;23.08;;;8.65;;
34278;SDS011;20538;51.528;9.942;2023-04-25T04:32:37;23.88;;;9.55;;
34278;SDS011;20538;51.528;9.942;2023-04-25T04:35:03;22.20;;;8.63;;
34278;SDS011;20538;51.528;9.942;2023-04-25T04:37:29;21.58;;;9.82;;
34278;SDS011;20538;51.528;9.942;2023-04-25T04:39:55;18.67;;;9.00;;
34278;SDS011;20538;51.528;9.942;2023-04-25T04:42:21;22.23;;;9.00;;
34278;SDS011;20538;51.528;9.942;2023-04-25T04:44:46;18.38;;;9.18;;
34278;SDS011;20538;51.528;9.942;2023-04-25T04:47:12;18.70;;;9.13;;
34278;SDS011;20538;51.528;9.942;2023-04-25T04:49:39;25.02;;;8.73;;
34278;SDS011;20538;51.528;9.942;2023-04-25T04:52:04;21.30;;;8.85;;
34278;SDS011;20538;51.528;9.942;2023-04-25T04:54:30;19.60;;;7.95;;
34278;SDS011;20538;51.528;9.942;2023-04-25T04:56:56;19.70;;;8.57;;
34278;SDS011;20538;51.528;9.942;2023-04-25T04:59:21;20.90;;;8.48;;
34278;SDS011;20538;51.528;9.942;2023-04-25T05:01:47;19.08;;;9.05;;
34278;SDS011;20538;51.528;9.942;2023-04-25T05:04:13;26.25;;;10.05;;
34278;SDS011;20538;51.528;9.942;2023-04-25T05:06:38;21.63;;;9.25;;
34278;SDS011;20538;51.528;9.942;2023-04-25T05:09:05;18.25;;;9.18;;
34278;SDS011;20538;51.528;9.942;2023-04-25T05:11:31;21.05;;;8.95;;
34278;SDS011;20538;51.528;9.942;2023-04-25T05:13:56;15.52;;;8.77;;
34278;SDS011;20538;51.528;9.942;2023-04-25T05:16:22;18.80;;;8.60;;
34278;SDS011;20538;51.528;9.942;2023-04-25T05:18:48;19.67;;;8.38;;
34278;SDS011;20538;51.528;9.942;2023-04-25T05:21:14;18.20;;;9.45;;
34278;SDS011;20538;51.528;9.942;2023-04-25T05:23:39;21.23;;;9.93;;
34278;SDS011;20538;51.528;9.942;2023-04-25T05:26:05;21.15;;;9.43;;
34278;SDS011;20538;51.528;9.942;2023-04-25T05:28:31;23.52;;;9.15;;
34278;SDS011;20538;51.528;9.942;2023-04-25T05:30:56;16.15;;;8.70;;
34278;SDS011;20538;51.528;9.942;2023-04-25T05:33:22;19.45;;;9.07;;
34278;SDS011;20538;51.528;9.942;2023-04-25T05:35:48;24.35;;;10.02;;
34278;SDS011;20538;51.528;9.942;2023-04-25T05:38:13;20.92;;;10.23;;
34278;SDS011;20538;51.528;9.942;2023-04-25T05:40:39;16.45;;;10.70;;
34278;SDS011;20538;51.528;9.942;2023-04-25T05:43:05;17.90;;;9.10;;
34278;SDS011;20538;51.528;9.942;2023-04-25T05:45:32;20.10;;;9.82;;
34278;SDS011;20538;51.528;9.942;2023-04-25T05:47:57;23.75;;;10.52;;
34278;SDS011;20538;51.528;9.942;2023-04-25T05:50:23;22.38;;;8.55;;
34278;SDS011;20538;51.528;9.942;2023-04-25T05:52:49;23.27;;;9.38;;
34278;SDS011;20538;51.528;9.942;2023-04-25T05:55:15;22.92;;;8.75;;
34278;SDS011;20538;51.528;9.942;2023-04-25T05:57:40;27.95;;;8.93;;
34278;SDS011;20538;51.528;9.942;2023-04-25T06:00:08;27.77;;;7.57;;
34278;SDS011;20538;51.528;9.942;2023-04-25T06:02:34;27.35;;;8.30;;
34278;SDS011;20538;51.528;9.942;2023-04-25T06:05:00;18.02;;;6.28;;
34278;SDS011;20538;51.528;9.942;2023-04-25T06:07:28;29.58;;;7.63;;
34278;SDS011;20538;51.528;9.942;2023-04-25T06:09:55;26.13;;;6.35;;
34278;SDS011;20538;51.528;9.942;2023-04-25T06:12:20;28.38;;;6.93;;
34278;SDS011;20538;51.528;9.942;2023-04-25T06:14:46;30.95;;;6.53;;
34278;SDS011;20538;51.528;9.942;2023-04-25T06:17:11;27.67;;;7.25;;
34278;SDS011;20538;51.528;9.942;2023-04-25T06:19:37;27.77;;;6.57;;
34278;SDS011;20538;51.528;9.942;2023-04-25T06:22:03;28.15;;;6.60;;
34278;SDS011;20538;51.528;9.942;2023-04-25T06:24:28;23.10;;;5.55;;
34278;SDS011;20538;51.528;9.942;2023-04-25T06:26:54;29.00;;;6.38;;
34278;SDS011;20538;51.528;9.942;2023-04-25T06:29:20;20.85;;;6.10;;
34278;SDS011;20538;51.528;9.942;2023-04-25T06:31:46;19.75;;;5.47;;
34278;SDS011;20538;51.528;9.942;2023-04-25T06:34:12;20.88;;;5.05;;
34278;SDS011;20538;51.528;9.942;2023-04-25T06:36:37;32.45;;;5.68;;
34278;SDS011;20538;51.528;9.942;2023-04-25T06:39:03;20.00;;;6.15;;
34278;SDS011;20538;51.528;9.942;2023-04-25T06:41:28;24.77;;;6.22;;
34278;SDS011;20538;51.528;9.942;2023-04-25T06:43:54;19.08;;;5.40;;
34278;SDS011;20538;51.528;9.942;2023-04-25T06:46:20;22.38;;;4.93;;
34278;SDS011;20538;51.528;9.942;2023-04-25T06:48:45;21.33;;;4.45;;
34278;SDS011;20538;51.528;9.942;2023-04-25T06:51:11;21.13;;;5.38;;
34278;SDS011;20538;51.528;9.942;2023-04-25T06:53:38;20.63;;;5.10;;
34278;SDS011;20538;51.528;9.942;2023-04-25T06:56:04;30.02;;;5.95;;
34278;SDS011;20538;51.528;9.942;2023-04-25T06:58:30;18.23;;;4.45;;
34278;SDS011;20538;51.528;9.942;2023-04-25T07:00:56;34.63;;;5.95;;
34278;SDS011;20538;51.528;9.942;2023-04-25T07:03:21;23.98;;;4.53;;
34278;SDS011;20538;51.528;9.942;2023-04-25T07:05:47;20.83;;;6.03;;
34278;SDS011;20538;51.528;9.942;2023-04-25T07:08:13;16.65;;;3.90;;
34278;SDS011;20538;51.528;9.942;2023-04-25T07:10:38;21.60;;;4.93;;
34278;SDS011;20538;51.528;9.942;2023-04-25T07:13:05;14.25;;;3.63;;
34278;SDS011;20538;51.528;9.942;2023-04-25T07:15:30;23.42;;;3.38;;
34278;SDS011;20538;51.528;9.942;2023-04-25T07:17:56;24.27;;;3.80;;
34278;SDS011;20538;51.528;9.942;2023-04-25T07:20:21;20.98;;;4.55;;
34278;SDS011;20538;51.528;9.942;2023-04-25T07:22:47;15.85;;;4.00;;
34278;SDS011;20538;51.528;9.942;2023-04-25T07:25:13;25.48;;;4.30;;
34278;SDS011;20538;51.528;9.942;2023-04-25T07:27:38;15.02;;;3.70;;
34278;SDS011;20538;51.528;9.942;2023-04-25T07:30:04;25.08;;;4.68;;
34278;SDS011;20538;51.528;9.942;2023-04-25T07:32:31;15.98;;;4.00;;
34278;SDS011;20538;51.528;9.942;2023-04-25T07:34:57;16.40;;;4.00;;
34278;SDS011;20538;51.528;9.942;2023-04-25T07:37:22;28.35;;;4.88;;
34278;SDS011;20538;51.528;9.942;2023-04-25T07:39:48;21.83;;;3.60;;
34278;SDS011;20538;51.528;9.942;2023-04-25T07:42:14;14.73;;;4.82;;
34278;SDS011;20538;51.528;9.942;2023-04-25T07:44:40;22.48;;;3.92;;
34278;SDS011;20538;51.528;9.942;2023-04-25T07:47:07;23.17;;;4.30;;
34278;SDS011;20538;51.528;9.942;2023-04-25T07:49:35;18.55;;;4.63;;
34278;SDS011;20538;51.528;9.942;2023-04-25T07:52:02;13.10;;;4.85;;
34278;SDS011;20538;51.528;9.942;2023-04-25T07:54:30;18.55;;;4.40;;
34278;SDS011;20538;51.528;9.942;2023-04-25T07:56:56;21.27;;;4.15;;
34278;SDS011;20538;51.528;9.942;2023-04-25T07:59:22;18.58;;;3.40;;
34278;SDS011;20538;51.528;9.942;2023-04-25T08:01:48;19.33;;;4.90;;
34278;SDS011;20538;51.528;9.942;2023-04-25T08:04:13;17.83;;;3.40;;
34278;SDS011;20538;51.528;9.942;2023-04-25T08:06:39;23.15;;;4.68;;
34278;SDS011;20538;51.528;9.942;2023-04-25T08:09:05;18.67;;;4.60;;
34278;SDS011;20538;51.528;9.942;2023-04-25T08:11:31;10.75;;;3.95;;
34278;SDS011;20538;51.528;9.942;2023-04-25T08:13:58;22.10;;;6.18;;
34278;SDS011;20538;51.528;9.942;2023-04-25T08:16:23;15.30;;;3.85;;
34278;SDS011;20538;51.528;9.942;2023-04-25T08:18:50;20.92;;;4.82;;
34278;SDS011;20538;51.528;9.942;2023-04-25T08:21:15;17.33;;;4.35;;
34278;SDS011;20538;51.528;9.942;2023-04-25T08:23:41;21.13;;;4.18;;
34278;SDS011;20538;51.528;9.942;2023-04-25T08:26:07;24.42;;;4.13;;
34278;SDS011;20538;51.528;9.942;2023-04-25T08:28:35;22.00;;;5.60;;
34278;SDS011;20538;51.528;9.942;2023-04-25T08:31:01;14.63;;;3.17;;
34278;SDS011;20538;51.528;9.942;2023-04-25T08:33:26;22.95;;;5.10;;
34278;SDS011;20538;51.528;9.942;2023-04-25T08:35:52;26.42;;;5.28;;
34278;SDS011;20538;51.528;9.942;2023-04-25T08:38:18;25.52;;;4.68;;
34278;SDS011;20538;51.528;9.942;2023-04-25T08:40:44;27.02;;;5.47;;
34278;SDS011;20538;51.528;9.942;2023-04-25T08:43:18;20.23;;;4.03;;
34278;SDS011;20538;51.528;9.942;2023-04-25T08:45:45;18.65;;;4.20;;
34278;SDS011;20538;51.528;9.942;2023-04-25T08:48:12;19.52;;;4.90;;
34278;SDS011;20538;51.528;9.942;2023-04-25T08:50:39;14.95;;;3.25;;
34278;SDS011;20538;51.528;9.942;2023-04-25T08:53:31;17.13;;;3.63;;
34278;SDS011;20538;51.528;9.942;2023-04-25T08:55:59;16.75;;;4.60;;
34278;SDS011;20538;51.528;9.942;2023-04-25T08:58:29;14.50;;;3.22;;
34278;SDS011;20538;51.528;9.942;2023-04-25T09:00:55;18.30;;;3.78;;
34278;SDS011;20538;51.528;9.942;2023-04-25T09:03:21;20.33;;;3.88;;
34278;SDS011;20538;51.528;9.942;2023-04-25T09:05:47;22.70;;;3.83;;
34278;SDS011;20538;51.528;9.942;2023-04-25T09:08:12;17.63;;;4.15;;
34278;SDS011;20538;51.528;9.942;2023-04-25T09:10:38;16.02;;;3.50;;
34278;SDS011;20538;51.528;9.942;2023-04-25T09:13:08;21.65;;;4.45;;
34278;SDS011;20538;51.528;9.942;2023-04-25T09:15:48;21.15;;;4.70;;
34278;SDS011;20538;51.528;9.942;2023-04-25T09:20:46;14.82;;;4.15;;
34278;SDS011;20538;51.528;9.942;2023-04-25T09:23:13;15.27;;;3.55;;
34278;SDS011;20538;51.528;9.942;2023-04-25T09:25:40;18.33;;;4.13;;
34278;SDS011;20538;51.528;9.942;2023-04-25T09:28:07;18.52;;;4.03;;
34278;SDS011;20538;51.528;9.942;2023-04-25T09:30:33;13.82;;;3.95;;
34278;SDS011;20538;51.528;9.942;2023-04-25T09:33:04;19.60;;;4.07;;
34278;SDS011;20538;51.528;9.942;2023-04-25T09:38:07;12.82;;;3.55;;
34278;SDS011;20538;51.528;9.942;2023-04-25T09:40:33;23.05;;;4.30;;
34278;SDS011;20538;51.528;9.942;2023-04-25T09:42:59;10.32;;;3.17;;
34278;SDS011;20538;51.528;9.942;2023-04-25T09:45:25;13.88;;;3.70;;
34278;SDS011;20538;51.528;9.942;2023-04-25T09:47:55;20.23;;;3.45;;
34278;SDS011;20538;51.528;9.942;2023-04-25T09:50:22;23.17;;;4.00;;
34278;SDS011;20538;51.528;9.942;2023-04-25T09:53:02;9.38;;;2.75;;
34278;SDS011;20538;51.528;9.942;2023-04-25T09:55:31;13.25;;;2.90;;
34278;SDS011;20538;51.528;9.942;2023-04-25T09:58:00;10.23;;;2.67;;
34278;SDS011;20538;51.528;9.942;2023-04-25T10:00:32;12.13;;;2.75;;
34278;SDS011;20538;51.528;9.942;2023-04-25T10:03:00;11.10;;;2.83;;
34278;SDS011;20538;51.528;9.942;2023-04-25T10:05:29;9.32;;;2.03;;
34278;SDS011;20538;51.528;9.942;2023-04-25T10:07:58;7.88;;;2.28;;
34278;SDS011;20538;51.528;9.942;2023-04-25T10:10:27;11.77;;;2.38;;
34278;SDS011;20538;51.528;9.942;2023-04-25T10:12:55;11.93;;;3.00;;
34278;SDS011;20538;51.528;9.942;2023-04-25T10:15:21;13.27;;;2.78;;
34278;SDS011;20538;51.528;9.942;2023-04-25T10:17:48;16.75;;;3.25;;
34278;SDS011;20538;51.528;9.942;2023-04-25T10:20:15;10.77;;;2.50;;
34278;SDS011;20538;51.528;9.942;2023-04-25T10:22:42;8.43;;;2.25;;
34278;SDS011;20538;51.528;9.942;2023-04-25T10:25:10;8.35;;;2.55;;
34278;SDS011;20538;51.528;9.942;2023-04-25T10:27:36;9.50;;;2.40;;
34278;SDS011;20538;51.528;9.942;2023-04-25T10:30:04;7.20;;;1.73;;
34278;SDS011;20538;51.528;9.942;2023-04-25T10:32:36;13.23;;;3.22;;
34278;SDS011;20538;51.528;9.942;2023-04-25T10:35:15;13.00;;;2.65;;
34278;SDS011;20538;51.528;9.942;2023-04-25T10:40:30;11.13;;;2.65;;
34278;SDS011;20538;51.528;9.942;2023-04-25T10:42:57;12.60;;;2.72;;
34278;SDS011;20538;51.528;9.942;2023-04-25T10:46:02;10.40;;;2.47;;
34278;SDS011;20538;51.528;9.942;2023-04-25T10:48:37;17.60;;;2.75;;
34278;SDS011;20538;51.528;9.942;2023-04-25T10:56:28;15.05;;;2.05;;
34278;SDS011;20538;51.528;9.942;2023-04-25T10:59:04;8.77;;;2.38;;
34278;SDS011;20538;51.528;9.942;2023-04-25T11:01:35;10.40;;;2.38;;
34278;SDS011;20538;51.528;9.942;2023-04-25T11:04:21;9.18;;;2.33;;
34278;SDS011;20538;51.528;9.942;2023-04-25T11:09:43;5.40;;;2.30;;
34278;SDS011;20538;51.528;9.942;2023-04-25T11:12:10;8.75;;;2.42;;
34278;SDS011;20538;51.528;9.942;2023-04-25T11:14:38;6.88;;;2.72;;
34278;SDS011;20538;51.528;9.942;2023-04-25T11:17:03;9.20;;;2.05;;
34278;SDS011;20538;51.528;9.942;2023-04-25T11:19:30;8.85;;;2.78;;
34278;SDS011;20538;51.528;9.942;2023-04-25T11:21:56;9.25;;;2.40;;
34278;SDS011;20538;51.528;9.942;2023-04-25T11:24:32;8.65;;;2.60;;
34278;SDS011;20538;51.528;9.942;2023-04-25T11:26:59;4.88;;;1.83;;
34278;SDS011;20538;51.528;9.942;2023-04-25T11:29:27;10.70;;;2.20;;
34278;SDS011;20538;51.528;9.942;2023-04-25T11:31:54;9.70;;;2.50;;
34278;SDS011;20538;51.528;9.942;2023-04-25T11:34:23;7.85;;;2.75;;
34278;SDS011;20538;51.528;9.942;2023-04-25T11:36:50;8.80;;;2.70;;
34278;SDS011;20538;51.528;9.942;2023-04-25T11:39:19;9.70;;;2.47;;
34278;SDS011;20538;51.528;9.942;2023-04-25T11:41:46;8.10;;;2.47;;
34278;SDS011;20538;51.528;9.942;2023-04-25T11:44:12;6.35;;;2.15;;
34278;SDS011;20538;51.528;9.942;2023-04-25T11:46:41;8.00;;;2.20;;
34278;SDS011;20538;51.528;9.942;2023-04-25T11:49:07;11.60;;;2.00;;
34278;SDS011;20538;51.528;9.942;2023-04-25T11:51:43;6.13;;;1.70;;
34278;SDS011;20538;51.528;9.942;2023-04-25T11:54:10;14.57;;;3.22;;
34278;SDS011;20538;51.528;9.942;2023-04-25T11:56:37;5.53;;;2.03;;
34278;SDS011;20538;51.528;9.942;2023-04-25T11:59:05;7.25;;;2.45;;
34278;SDS011;20538;51.528;9.942;2023-04-25T12:01:32;9.73;;;2.53;;
34278;SDS011;20538;51.528;9.942;2023-04-25T12:04:12;4.70;;;2.10;;
34278;SDS011;20538;51.528;9.942;2023-04-25T12:06:52;10.55;;;2.28;;
34278;SDS011;20538;51.528;9.942;2023-04-25T12:09:20;11.18;;;2.53;;
34278;SDS011;20538;51.528;9.942;2023-04-25T12:11:57;9.88;;;2.60;;
34278;SDS011;20538;51.528;9.942;2023-04-25T12:14:28;13.18;;;2.30;;
34278;SDS011;20538;51.528;9.942;2023-04-25T12:16:57;7.85;;;2.10;;
34278;SDS011;20538;51.528;9.942;2023-04-25T12:19:23;6.55;;;2.20;;
34278;SDS011;20538;51.528;9.942;2023-04-25T12:21:49;6.72;;;1.95;;
34278;SDS011;20538;51.528;9.942;2023-04-25T12:24:22;7.47;;;2.08;;
34278;SDS011;20538;51.528;9.942;2023-04-25T12:29:18;6.07;;;2.05;;
34278;SDS011;20538;51.528;9.942;2023-04-25T12:31:48;6.03;;;1.85;;
34278;SDS011;20538;51.528;9.942;2023-04-25T12:34:14;8.27;;;2.05;;
34278;SDS011;20538;51.528;9.942;2023-04-25T12:36:40;9.23;;;2.15;;
34278;SDS011;20538;51.528;9.942;2023-04-25T12:39:06;7.38;;;2.22;;
34278;SDS011;20538;51.528;9.942;2023-04-25T12:41:32;7.70;;;2.53;;
34278;SDS011;20538;51.528;9.942;2023-04-25T12:43:57;7.55;;;2.22;;
34278;SDS011;20538;51.528;9.942;2023-04-25T12:46:23;8.00;;;2.13;;
34278;SDS011;20538;51.528;9.942;2023-04-25T12:48:49;6.55;;;2.10;;
34278;SDS011;20538;51.528;9.942;2023-04-25T12:51:15;8.05;;;2.20;;
34278;SDS011;20538;51.528;9.942;2023-04-25T12:53:41;8.88;;;2.47;;
34278;SDS011;20538;51.528;9.942;2023-04-25T12:56:07;6.50;;;1.80;;
34278;SDS011;20538;51.528;9.942;2023-04-25T12:58:33;6.13;;;2.15;;
34278;SDS011;20538;51.528;9.942;2023-04-25T13:00:59;7.72;;;2.08;;
34278;SDS011;20538;51.528;9.942;2023-04-25T13:03:25;5.63;;;1.85;;
34278;SDS011;20538;51.528;9.942;2023-04-25T13:05:50;3.72;;;1.55;;
34278;SDS011;20538;51.528;9.942;2023-04-25T13:08:17;7.22;;;1.42;;
34278;SDS011;20538;51.528;9.942;2023-04-25T13:10:44;7.90;;;1.63;;
34278;SDS011;20538;51.528;9.942;2023-04-25T13:13:09;8.05;;;2.05;;
34278;SDS011;20538;51.528;9.942;2023-04-25T13:15:35;10.55;;;2.17;;
34278;SDS011;20538;51.528;9.942;2023-04-25T13:18:01;7.63;;;1.90;;
34278;SDS011;20538;51.528;9.942;2023-04-25T13:20:28;4.97;;;2.10;;
34278;SDS011;20538;51.528;9.942;2023-04-25T13:22:54;8.27;;;1.60;;
34278;SDS011;20538;51.528;9.942;2023-04-25T13:25:20;10.68;;;2.08;;
34278;SDS011;20538;51.528;9.942;2023-04-25T13:27:46;6.88;;;2.70;;
34278;SDS011;20538;51.528;9.942;2023-04-25T13:30:12;7.05;;;2.33;;
34278;SDS011;20538;51.528;9.942;2023-04-25T13:32:39;11.27;;;2.05;;
34278;SDS011;20538;51.528;9.942;2023-04-25T13:35:06;7.68;;;1.52;;
34278;SDS011;20538;51.528;9.942;2023-04-25T13:37:36;3.15;;;1.50;;
34278;SDS011;20538;51.528;9.942;2023-04-25T13:40:03;10.57;;;2.05;;
34278;SDS011;20538;51.528;9.942;2023-04-25T13:42:31;5.43;;;2.00;;
34278;SDS011;20538;51.528;9.942;2023-04-25T13:44:57;7.85;;;1.60;;
34278;SDS011;20538;51.528;9.942;2023-04-25T13:47:26;5.10;;;1.63;;
34278;SDS011;20538;51.528;9.942;2023-04-25T13:49:52;3.38;;;1.42;;
34278;SDS011;20538;51.528;9.942;2023-04-25T13:52:19;6.95;;;2.42;;
34278;SDS011;20538;51.528;9.942;2023-04-25T13:54:45;7.30;;;2.22;;
34278;SDS011;20538;51.528;9.942;2023-04-25T13:57:12;4.72;;;1.70;;
34278;SDS011;20538;51.528;9.942;2023-04-25T13:59:38;9.23;;;1.75;;
34278;SDS011;20538;51.528;9.942;2023-04-25T14:02:05;9.60;;;1.98;;
34278;SDS011;20538;51.528;9.942;2023-04-25T14:04:32;11.85;;;1.60;;
34278;SDS011;20538;51.528;9.942;2023-04-25T14:06:58;6.72;;;1.73;;
34278;SDS011;20538;51.528;9.942;2023-04-25T14:09:23;4.75;;;1.58;;
34278;SDS011;20538;51.528;9.942;2023-04-25T14:11:54;4.70;;;3.35;;
34278;SDS011;20538;51.528;9.942;2023-04-25T14:14:20;7.63;;;1.60;;
34278;SDS011;20538;51.528;9.942;2023-04-25T14:16:47;6.22;;;2.00;;
34278;SDS011;20538;51.528;9.942;2023-04-25T14:19:13;6.25;;;1.65;;
34278;SDS011;20538;51.528;9.942;2023-04-25T14:21:39;4.70;;;2.00;;
34278;SDS011;20538;51.528;9.942;2023-04-25T14:24:05;5.03;;;1.67;;
34278;SDS011;20538;51.528;9.942;2023-04-25T14:26:33;3.00;;;1.45;;
34278;SDS011;20538;51.528;9.942;2023-04-25T14:28:59;9.35;;;1.35;;
34278;SDS011;20538;51.528;9.942;2023-04-25T14:31:25;3.92;;;1.45;;
34278;SDS011;20538;51.528;9.942;2023-04-25T14:33:50;7.55;;;1.58;;
34278;SDS011;20538;51.528;9.942;2023-04-25T14:36:16;7.07;;;1.85;;
34278;SDS011;20538;51.528;9.942;2023-04-25T14:38:42;3.15;;;1.33;;
34278;SDS011;20538;51.528;9.942;2023-04-25T14:41:07;4.13;;;1.70;;
34278;SDS011;20538;51.528;9.942;2023-04-25T14:43:34;4.18;;;1.40;;
34278;SDS011;20538;51.528;9.942;2023-04-25T14:46:01;4.97;;;1.50;;
34278;SDS011;20538;51.528;9.942;2023-04-25T14:48:27;4.63;;;1.70;;
34278;SDS011;20538;51.528;9.942;2023-04-25T14:50:54;3.92;;;1.63;;
34278;SDS011;20538;51.528;9.942;2023-04-25T14:53:21;5.57;;;1.45;;
34278;SDS011;20538;51.528;9.942;2023-04-25T14:55:47;5.88;;;1.65;;